Monday, December 18, 2017, 5:25 PM EST
Back to Local

KAGC, Pittsburgh Allegheny Cty.

Location: West Mifflin, PA, United States Lat: 40.35
Local Time: 5:25 PM EST (22:25 GMT) Lon: -79.917
Time Zone: US/Eastern Elev: 1253 ft

Show me the last for .
Show Coded

Time T Td Feel RH Dir Speed Gust Alt SLP Vis Weather Sky Remarks
2017-12-18 17:14 42 38 37 85 230° 8 - 29.99 - 10 FEW015 SCT028 OVC034 None
2017-12-18 16:53 42 37 36 82 230° 10 - 29.98 30.02 10 BKN017 BKN021 OVC034 None
2017-12-18 16:12 42 38 37 85 220° 9 - 29.97 - 9 OVC016 None
2017-12-18 16:00 42 38 36 85 230° 10 - 29.97 - 8 OVC014 None
2017-12-18 15:53 42 38 36 85 230° 12 - 29.97 30.01 9 OVC009 None
2017-12-18 14:53 42 38 32 85 230° 14 24 29.96 30.00 10 OVC009 None
2017-12-18 14:48 43 37 36 81 230° 13 - 29.96 - 10 OVC009 None
2017-12-18 14:09 42 38 33 85 230° 10 20 29.96 - 10 OVC010 None
2017-12-18 13:53 42 37 36 82 220° 12 - 29.96 30.00 8 OVC009 None
2017-12-18 12:53 40 37 33 89 210° 12 - 29.98 30.02 4 BR OVC006 6-hr Min Temp (1pm): 36.0°F
6-hr Max Temp (1pm): 39.9°F
2017-12-18 11:53 40 35 34 82 220° 8 - 30.01 30.05 7 OVC008 None
2017-12-18 10:53 39 35 33 85 200° 8 - 30.03 30.08 7 OVC007 None
2017-12-18 09:53 38 34 31 85 200° 10 - 30.05 30.09 7 OVC009 None
2017-12-18 09:37 38 34 32 85 210° 8 - 30.06 - 9 OVC009 None
2017-12-18 09:28 38 33 31 82 210° 9 - 30.05 - 10 BKN042 None
2017-12-18 09:01 37 33 30 85 210° 9 - 30.06 - 10 BKN010 OVC043 None
2017-12-18 08:53 37 33 30 85 210° 9 - 30.06 30.10 10 SCT010 OVC043 None
2017-12-18 07:53 36 32 28 85 190° 12 - 30.05 30.09 10 OVC044 None
2017-12-18 06:53 36 31 30 81 190° 8 - 30.06 30.10 10 OVC044 24-hr Precip Total (7am): 0.09"
6-hr Min Temp (7am): 35.1°F
6-hr Max Temp (7am): 37.0°F
2017-12-18 05:53 36 30 30 78 190° 8 - 30.06 30.10 10 OVC048 None
2017-12-18 04:53 35 29 29 78 180° 8 - 30.05 30.10 10 BKN055 None
2017-12-18 03:53 36 30 30 78 190° 7 - 30.06 30.10 10 OVC060 None
2017-12-18 02:53 36 30 30 78 180° 7 - 30.07 30.11 10 OVC070 None
2017-12-18 01:53 36 30 31 78 180° 6 - 30.06 30.10 10 OVC070 None
2017-12-18 00:53 37 30 32 75 200° 7 - 30.08 30.12 10 FEW050 OVC070 6-hr Min Temp (1am): 35.1°F
6-hr Max Temp (1am): 37.0°F
2017-12-17 23:53 37 30 31 75 190° 8 - 30.09 30.13 10 BKN043 OVC070 24-hr Min Temp (12am): 30.0°F
24-hr Max Temp (12am): 39.0°F
2017-12-17 22:53 37 30 32 75 200° 6 - 30.09 30.13 10 OVC060 None
2017-12-17 21:53 36 31 30 81 180° 8 - 30.08 30.12 10 OVC055 None
2017-12-17 20:53 36 32 29 85 170° 9 - 30.10 30.14 9 BKN055 OVC075 None
2017-12-17 19:53 35 32 29 88 170° 7 - 30.11 30.16 9 SCT055 OVC070 None
2017-12-17 18:53 35 33 30 92 160° 6 - 30.11 30.16 5 BR BKN036 BKN050 OVC055 1-hr Precip Total: 0.02"
6-hr Precip Total (7pm): 0.09"
6-hr Min Temp (7pm): 35.1°F
6-hr Max Temp (7pm): 39.0°F
2017-12-17 17:53 36 32 32 85 200° 5 - 30.13 30.17 6 -RA BR OVC041 1-hr Precip Total: 0.04"

Support USWX by starting your Amazon purchase here.